createdAt,value
2017-06-26T00:02:03.285Z,18.7
2017-06-26T00:07:03.598Z,18.6
2017-06-26T00:12:03.059Z,18.5
2017-06-26T00:17:03.328Z,18.4
2017-06-26T00:22:03.322Z,18.3
2017-06-26T00:27:03.473Z,18.1
2017-06-26T00:32:03.404Z,18.0
2017-06-26T00:37:03.100Z,17.9
2017-06-26T00:42:03.044Z,17.9
2017-06-26T00:47:02.941Z,17.9
2017-06-26T00:52:03.280Z,17.8
2017-06-26T00:57:03.328Z,17.7
2017-06-26T01:02:03.475Z,17.8
2017-06-26T01:07:02.935Z,17.6
2017-06-26T01:12:03.110Z,17.6
2017-06-26T01:17:03.277Z,17.6
2017-06-26T01:22:02.831Z,17.5
2017-06-26T01:27:03.381Z,17.4
2017-06-26T01:32:03.236Z,17.2
2017-06-26T01:37:03.127Z,17.1
2017-06-26T01:42:02.703Z,17.0
2017-06-26T01:47:03.407Z,17.0
2017-06-26T01:52:03.187Z,17.0
2017-06-26T01:57:02.936Z,17.0
2017-06-26T02:02:02.832Z,16.8
2017-06-26T02:07:03.024Z,16.8
2017-06-26T02:12:03.076Z,16.8
2017-06-26T02:17:03.402Z,16.7
2017-06-26T02:22:03.432Z,16.7
2017-06-26T02:27:03.631Z,16.6
2017-06-26T02:32:07.152Z,16.5
2017-06-26T02:37:03.406Z,16.4
2017-06-26T02:42:02.818Z,16.4
2017-06-26T02:47:10.806Z,16.4
2017-06-26T02:52:02.829Z,16.3
2017-06-26T02:57:03.187Z,16.2
2017-06-26T03:02:13.906Z,16.1
2017-06-26T03:07:02.960Z,16.1
2017-06-26T03:12:03.372Z,16.1
2017-06-26T03:17:13.758Z,16.1
2017-06-26T03:22:02.781Z,16.0
2017-06-26T03:27:03.264Z,16.0
2017-06-26T03:32:13.947Z,15.8
2017-06-26T03:37:02.927Z,15.8
2017-06-26T03:42:03.251Z,15.8
2017-06-26T03:47:14.119Z,15.9
2017-06-26T03:52:02.961Z,15.8
2017-06-26T03:57:03.291Z,15.8
2017-06-26T04:02:13.047Z,15.8
2017-06-26T04:07:03.289Z,15.7
2017-06-26T04:12:02.782Z,15.9
2017-06-26T04:17:13.776Z,16.1
2017-06-26T04:22:03.577Z,16.2
2017-06-26T04:27:03.019Z,16.6
2017-06-26T04:32:13.754Z,16.9
2017-06-26T04:37:03.605Z,17.2
2017-06-26T04:42:02.926Z,17.1
2017-06-26T04:47:13.770Z,17.4
2017-06-26T04:52:02.679Z,17.7
2017-06-26T04:57:03.067Z,18.0
2017-06-26T05:02:13.754Z,18.6
2017-06-26T05:07:02.926Z,18.6
2017-06-26T05:12:03.441Z,18.9
2017-06-26T05:17:13.450Z,19.5
2017-06-26T05:22:03.318Z,19.5
2017-06-26T05:27:03.665Z,20.0
2017-06-26T05:32:13.216Z,20.3
2017-06-26T05:37:02.890Z,20.2
2017-06-26T05:42:03.255Z,20.6
2017-06-26T05:47:14.050Z,21.2
2017-06-26T05:52:02.962Z,21.2
2017-06-26T05:57:03.341Z,21.5
2017-06-26T06:02:13.354Z,21.8
2017-06-26T06:07:03.368Z,22.1
2017-06-26T06:12:02.820Z,22.4
2017-06-26T06:17:17.001Z,22.4
2017-06-26T06:22:02.782Z,22.8
2017-06-26T06:27:03.218Z,22.8
2017-06-26T06:32:17.157Z,23.3
2017-06-26T06:37:02.785Z,23.2
2017-06-26T06:42:03.169Z,23.4
2017-06-26T06:47:14.033Z,23.7
2017-06-26T06:52:03.304Z,24.0
2017-06-26T06:57:02.677Z,24.3
2017-06-26T07:02:17.586Z,24.5
2017-06-26T07:07:03.436Z,25.0
2017-06-26T07:12:02.877Z,25.0
2017-06-26T07:17:13.878Z,25.5
2017-06-26T07:22:03.296Z,25.6
2017-06-26T07:27:03.168Z,25.9
2017-06-26T07:32:13.600Z,26.0
2017-06-26T07:37:03.462Z,26.0
2017-06-26T07:42:02.934Z,26.5
2017-06-26T07:47:14.437Z,26.4
2017-06-26T07:52:03.501Z,26.7
2017-06-26T07:57:02.918Z,27.0
2017-06-26T08:02:13.321Z,27.3
2017-06-26T08:07:02.919Z,27.6
2017-06-26T08:12:03.429Z,27.7
2017-06-26T08:17:13.335Z,27.7
2017-06-26T08:22:03.290Z,27.8
2017-06-26T08:27:03.666Z,27.8
2017-06-26T08:32:13.578Z,28.2
2017-06-26T08:37:03.157Z,28.3
2017-06-26T08:42:03.432Z,28.5
2017-06-26T08:47:13.308Z,28.8
2017-06-26T08:52:03.207Z,28.8
2017-06-26T08:57:03.274Z,29.0
2017-06-26T09:02:12.965Z,28.8
2017-06-26T09:07:03.188Z,29.1
2017-06-26T09:12:03.420Z,29.8
2017-06-26T09:17:13.197Z,29.9
2017-06-26T09:22:03.598Z,29.9
2017-06-26T09:27:03.511Z,30.2
2017-06-26T09:32:13.259Z,30.5
2017-06-26T09:37:03.298Z,30.4
2017-06-26T09:42:03.204Z,31.1
2017-06-26T09:47:16.876Z,31.1
2017-06-26T09:52:03.011Z,31.4
2017-06-26T09:57:03.348Z,31.3
2017-06-26T10:02:12.903Z,32.0
2017-06-26T10:07:03.548Z,32.6
2017-06-26T10:12:03.025Z,32.6
2017-06-26T10:17:13.548Z,33.3
2017-06-26T10:22:02.860Z,33.2
2017-06-26T10:27:03.282Z,33.2
2017-06-26T10:32:17.772Z,33.4
2017-06-26T10:37:03.186Z,33.3
2017-06-26T10:42:03.475Z,33.5
2017-06-26T10:47:13.872Z,33.7
2017-06-26T10:52:03.055Z,33.7
2017-06-26T10:57:03.550Z,33.7
2017-06-26T11:02:13.527Z,34.0
2017-06-26T11:07:03.488Z,34.7
2017-06-26T11:12:03.440Z,34.7
2017-06-26T11:17:13.076Z,34.8
2017-06-26T11:22:02.764Z,34.6
2017-06-26T11:27:03.187Z,34.8
2017-06-26T11:32:17.031Z,35.1
2017-06-26T11:37:03.013Z,35.4
2017-06-26T11:42:03.462Z,35.4
2017-06-26T11:47:13.259Z,35.2
2017-06-26T11:52:02.724Z,34.9
2017-06-26T11:57:03.123Z,35.0
2017-06-26T12:02:17.702Z,35.3
2017-06-26T12:07:03.103Z,35.1
2017-06-26T12:12:03.581Z,35.1
2017-06-26T12:17:13.314Z,35.8
2017-06-26T12:22:02.960Z,35.8
2017-06-26T12:27:03.407Z,36.4
2017-06-26T12:32:12.994Z,37.6
2017-06-26T12:37:02.726Z,37.5
2017-06-26T12:42:03.111Z,37.8
2017-06-26T12:47:13.989Z,38.4
2017-06-26T12:52:03.340Z,38.7
2017-06-26T12:57:02.761Z,38.7
2017-06-26T13:02:13.400Z,39.2
2017-06-26T13:07:03.272Z,39.6
2017-06-26T13:12:02.771Z,39.6
2017-06-26T13:17:13.737Z,39.8
2017-06-26T13:22:03.185Z,40.0
2017-06-26T13:27:03.491Z,40.3
2017-06-26T13:32:13.144Z,41.2
2017-06-26T13:37:02.822Z,41.2
2017-06-26T13:42:03.185Z,41.6
2017-06-26T13:47:23.455Z,42.2
2017-06-26T13:52:02.821Z,42.1
2017-06-26T13:57:03.230Z,41.9
2017-06-26T14:02:17.347Z,40.8
2017-06-26T14:07:03.102Z,40.9
2017-06-26T14:12:03.455Z,40.9
2017-06-26T14:17:13.359Z,40.3
2017-06-26T14:22:03.323Z,40.5
2017-06-26T14:27:03.612Z,40.5
2017-06-26T14:32:13.549Z,41.8
2017-06-26T14:37:03.419Z,41.8
2017-06-26T14:42:02.735Z,42.5
2017-06-26T14:47:13.774Z,44.6
2017-06-26T14:52:02.737Z,44.6
2017-06-26T14:57:03.109Z,44.9
2017-06-26T15:02:13.912Z,44.9
2017-06-26T15:07:03.394Z,46.1
2017-06-26T15:12:02.941Z,47.4
2017-06-26T15:17:13.944Z,51.0
2017-06-26T15:22:03.269Z,51.0
2017-06-26T15:27:03.498Z,51.4
2017-06-26T15:32:13.076Z,47.4
2017-06-26T15:37:02.678Z,48.9
2017-06-26T15:42:03.048Z,48.9
2017-06-26T15:47:13.726Z,48.4
2017-06-26T15:52:03.144Z,48.3
2017-06-26T15:57:03.318Z,49.0
2017-06-26T16:02:13.228Z,50.6
2017-06-26T16:07:03.130Z,50.6
2017-06-26T16:12:03.555Z,52.5
2017-06-26T16:17:13.425Z,54.8
2017-06-26T16:22:03.130Z,54.8
2017-06-26T16:27:03.467Z,48.4
2017-06-26T16:32:13.135Z,50.8
2017-06-26T16:37:03.243Z,51.7
2017-06-26T16:42:03.513Z,48.0
2017-06-26T16:47:11.134Z,45.2
2017-06-26T16:52:02.848Z,45.0
2017-06-26T16:57:03.203Z,46.7
2017-06-26T17:02:13.882Z,45.3
2017-06-26T17:07:03.598Z,43.1
2017-06-26T17:12:03.119Z,38.4
2017-06-26T17:17:13.906Z,36.2
2017-06-26T17:22:02.846Z,34.8
2017-06-26T17:27:03.274Z,34.8
2017-06-26T17:32:13.846Z,33.2
2017-06-26T17:37:03.124Z,33.2
2017-06-26T17:42:03.474Z,32.7
2017-06-26T17:47:13.238Z,32.1
2017-06-26T17:52:03.529Z,32.1
2017-06-26T17:57:02.907Z,32.2
2017-06-26T18:02:13.732Z,31.7
2017-06-26T18:07:02.861Z,31.3
2017-06-26T18:12:03.402Z,31.3
2017-06-26T18:17:13.377Z,30.7
2017-06-26T18:22:03.170Z,30.7
2017-06-26T18:27:03.479Z,30.3
2017-06-26T18:32:13.382Z,30.0
2017-06-26T18:37:03.291Z,29.9
2017-06-26T18:42:02.744Z,29.8
2017-06-26T18:47:13.555Z,29.4
2017-06-26T18:52:03.407Z,29.3
2017-06-26T18:57:02.775Z,28.9
2017-06-26T19:02:13.484Z,28.9
2017-06-26T19:07:02.797Z,28.4
2017-06-26T19:12:03.407Z,28.5
2017-06-26T19:22:03.548Z,28.0
2017-06-26T19:27:03.176Z,27.9
2017-06-26T19:32:17.498Z,27.7
2017-06-26T19:37:03.100Z,27.7
2017-06-26T19:42:03.406Z,27.5
2017-06-26T19:47:13.233Z,27.3
2017-06-26T19:52:03.190Z,27.3
2017-06-26T19:57:02.735Z,27.3
2017-06-26T20:02:13.886Z,27.3
2017-06-26T20:07:03.195Z,27.3
2017-06-26T20:12:02.783Z,26.9
2017-06-26T20:17:05.164Z,26.9
2017-06-26T20:22:03.381Z,26.7
2017-06-26T20:27:02.775Z,26.6
2017-06-26T20:32:03.442Z,26.4
2017-06-26T20:37:03.075Z,26.4
2017-06-26T20:42:03.294Z,26.4
2017-06-26T20:47:03.931Z,26.4
2017-06-26T20:52:03.000Z,26.4
2017-06-26T20:57:03.177Z,26.4
2017-06-26T21:02:03.492Z,26.3
2017-06-26T21:07:02.974Z,26.0
2017-06-26T21:12:03.380Z,26.0
2017-06-26T21:17:03.701Z,25.4
2017-06-26T21:22:03.165Z,25.3
2017-06-26T21:27:03.334Z,25.1
2017-06-26T21:32:03.553Z,24.7
2017-06-26T21:37:02.917Z,24.6
2017-06-26T21:42:03.202Z,23.1
2017-06-26T21:47:03.469Z,23.0
2017-06-26T21:52:02.829Z,21.7
2017-06-26T21:57:03.094Z,21.6
2017-06-26T22:02:03.630Z,21.3
2017-06-26T22:07:03.067Z,20.7
2017-06-26T22:12:03.232Z,20.8
2017-06-26T22:22:03.157Z,21.0
2017-06-26T22:27:03.372Z,20.9
2017-06-26T22:32:02.953Z,20.9
2017-06-26T22:37:03.008Z,20.7
2017-06-26T22:42:02.683Z,20.3
2017-06-26T22:47:03.278Z,20.3
2017-06-26T22:52:03.524Z,20.2
2017-06-26T22:57:03.443Z,20.1
2017-06-26T23:02:03.041Z,20.1
2017-06-26T23:07:03.537Z,20.1
2017-06-26T23:12:03.526Z,20.1
2017-06-26T23:17:03.490Z,20.0
2017-06-26T23:22:02.944Z,20.0
2017-06-26T23:27:03.249Z,19.6
2017-06-26T23:32:03.151Z,19.6
2017-06-26T23:37:03.322Z,19.6
2017-06-26T23:42:03.188Z,19.5
2017-06-26T23:47:03.334Z,19.7
2017-06-26T23:52:03.482Z,19.7
2017-06-26T23:57:03.361Z,19.8
